Time;durP1;ratioP1;P1;durP2;ratioP2;P2;SDS_P1;SDS_P2;PMS_P1;PMS_P2;Temp;Humidity;BMP_temperature;BMP_pressure;BME280_temperature;BME280_humidity;BME280_pressure;Samples;Min_cycle;Max_cycle;Signal;HPM_P1;HPM_P2
2023/06/06 00:02:16;;;;;;;5.18;3.38;;;16.20;99.90;;;;;;5104296;28;20044;-63
2023/06/06 00:04:45;;;;;;;7.28;3.30;;;16.20;99.90;;;;;;5108798;28;20050;-62
2023/06/06 00:07:12;;;;;;;8.38;3.40;;;16.20;99.90;;;;;;5103054;28;20549;-61
2023/06/06 00:09:38;;;;;;;5.78;3.30;;;16.00;99.90;;;;;;5104883;28;20382;-62
2023/06/06 00:12:04;;;;;;;9.40;3.17;;;15.80;99.90;;;;;;5104526;28;20024;-63
2023/06/06 00:14:31;;;;;;;6.93;3.80;;;15.70;99.90;;;;;;5106322;28;20070;-62
2023/06/06 00:16:58;;;;;;;10.02;3.40;;;15.60;99.90;;;;;;5106116;28;20035;-63
2023/06/06 00:19:24;;;;;;;4.03;2.92;;;15.70;99.90;;;;;;5106744;28;20605;-63
2023/06/06 00:21:50;;;;;;;6.68;3.25;;;15.80;99.90;;;;;;5106630;28;20027;-63
2023/06/06 00:24:17;;;;;;;5.35;3.58;;;15.80;99.90;;;;;;5107984;28;20558;-63
2023/06/06 00:26:42;;;;;;;4.47;2.65;;;15.70;99.90;;;;;;5106696;28;20467;-62
2023/06/06 00:29:08;;;;;;;9.27;3.58;;;15.50;99.90;;;;;;5103296;28;20051;-63
2023/06/06 00:31:34;;;;;;;7.30;3.10;;;;;;;;;;5103156;28;20100;-62
2023/06/06 00:33:59;;;;;;;6.72;3.17;;;15.30;99.90;;;;;;5106712;28;20036;-63
2023/06/06 00:36:25;;;;;;;5.70;3.50;;;15.10;99.90;;;;;;5106201;28;20012;-63
2023/06/06 00:38:50;;;;;;;7.80;3.33;;;15.00;99.90;;;;;;5102687;28;20043;-63
2023/06/06 00:41:16;;;;;;;4.80;3.33;;;15.00;99.90;;;;;;5101966;28;20671;-63
2023/06/06 00:43:43;;;;;;;4.50;3.10;;;14.90;99.90;;;;;;5103096;28;20031;-63
2023/06/06 00:46:08;;;;;;;6.90;3.15;;;14.90;99.90;;;;;;5105437;28;20511;-62
2023/06/06 00:48:34;;;;;;;4.90;2.95;;;15.00;99.90;;;;;;5105768;28;20028;-62
2023/06/06 00:51:00;;;;;;;8.05;3.10;;;15.20;99.90;;;;;;5099373;28;20396;-62
2023/06/06 00:53:25;;;;;;;6.90;3.13;;;15.30;99.90;;;;;;5106996;28;20032;-61
2023/06/06 00:55:52;;;;;;;14.52;3.53;;;15.40;99.90;;;;;;5109613;28;20096;-63
2023/06/06 00:58:18;;;;;;;9.32;3.40;;;15.50;99.90;;;;;;5107623;27;20016;-63
2023/06/06 01:00:44;;;;;;;9.75;3.35;;;15.60;99.90;;;;;;5110559;28;20012;-62
2023/06/06 01:03:10;;;;;;;6.72;3.33;;;15.60;99.90;;;;;;5105813;28;20110;-62
2023/06/06 01:05:37;;;;;;;8.38;3.38;;;15.60;99.90;;;;;;5106953;28;20038;-63
2023/06/06 01:08:03;;;;;;;5.60;2.78;;;15.70;99.90;;;;;;5106912;28;20016;-63
2023/06/06 01:10:30;;;;;;;5.78;2.85;;;15.70;99.90;;;;;;5110163;28;20579;-63
2023/06/06 01:13:35;;;;;;;7.43;3.05;;;15.40;99.90;;;;;;5104612;28;20023;-61
2023/06/06 01:16:12;;;;;;;8.02;3.20;;;15.30;99.90;;;;;;5074688;28;20040;-62
2023/06/06 01:18:41;;;;;;;6.80;3.33;;;15.40;99.90;;;;;;5106561;28;20027;-63
2023/06/06 01:21:07;;;;;;;6.03;2.97;;;15.40;99.90;;;;;;5104979;28;20036;-63
2023/06/06 01:23:34;;;;;;;5.05;3.45;;;15.40;99.90;;;;;;5105251;28;20123;-61
2023/06/06 01:26:04;;;;;;;8.45;3.80;;;15.30;99.90;;;;;;5105588;27;20028;-61
2023/06/06 01:28:30;;;;;;;6.53;3.53;;;15.20;99.90;;;;;;5106095;28;20059;-62
2023/06/06 01:30:56;;;;;;;6.18;3.28;;;15.20;99.90;;;;;;5100098;28;20034;-62
2023/06/06 01:33:24;;;;;;;4.90;3.22;;;15.10;99.90;;;;;;5105082;28;20126;-62
2023/06/06 01:36:14;;;;;;;5.60;2.92;;;15.10;99.90;;;;;;5108227;28;20043;-62
2023/06/06 01:39:13;;;;;;;10.43;3.90;;;15.10;99.90;;;;;;5106699;28;20097;-62
2023/06/06 01:41:41;;;;;;;7.63;4.15;;;15.20;99.90;;;;;;5090972;28;20077;-62
2023/06/06 01:44:09;;;;;;;11.05;3.47;;;15.20;99.90;;;;;;5104619;28;20424;-62
2023/06/06 01:46:35;;;;;;;6.30;3.25;;;15.20;99.90;;;;;;5107066;28;20484;-62
2023/06/06 01:49:01;;;;;;;6.88;2.97;;;15.20;99.90;;;;;;5107102;28;20063;-63
2023/06/06 01:51:27;;;;;;;6.32;3.55;;;15.20;99.90;;;;;;5110022;28;20022;-62
2023/06/06 01:53:56;;;;;;;8.15;4.18;;;15.20;99.90;;;;;;5106191;28;20389;-63
2023/06/06 01:56:23;;;;;;;4.97;3.42;;;15.20;99.90;;;;;;5108286;28;20111;-62
2023/06/06 01:58:48;;;;;;;5.80;3.78;;;15.20;99.90;;;;;;5086285;28;20440;-63
2023/06/06 02:01:14;;;;;;;7.07;4.03;;;15.20;99.90;;;;;;5084657;28;20024;-63
2023/06/06 02:03:41;;;;;;;5.13;3.92;;;15.10;99.90;;;;;;5104839;28;20392;-63
2023/06/06 02:06:07;;;;;;;7.93;4.10;;;15.10;99.90;;;;;;5106759;28;20458;-63
2023/06/06 02:08:32;;;;;;;11.98;4.43;;;15.10;99.90;;;;;;5105981;28;20103;-63
2023/06/06 02:10:58;;;;;;;11.65;4.82;;;15.10;99.90;;;;;;5104706;28;20020;-63
2023/06/06 02:13:25;;;;;;;8.93;4.47;;;15.00;99.90;;;;;;5105072;28;20370;-63
2023/06/06 02:15:51;;;;;;;6.70;3.95;;;15.00;99.90;;;;;;5104404;28;20027;-62
2023/06/06 02:18:16;;;;;;;11.27;4.32;;;15.00;99.90;;;;;;5104293;28;20103;-62
2023/06/06 02:20:42;;;;;;;8.18;4.47;;;15.00;99.90;;;;;;5104003;28;20103;-63
2023/06/06 02:23:07;;;;;;;9.18;4.50;;;15.00;99.90;;;;;;5102486;28;20032;-63
2023/06/06 02:25:33;;;;;;;9.77;4.45;;;14.90;99.90;;;;;;5102769;28;20028;-63
2023/06/06 02:27:59;;;;;;;9.02;4.28;;;14.90;99.90;;;;;;5104413;28;20019;-62
2023/06/06 02:30:25;;;;;;;8.90;4.18;;;14.90;99.90;;;;;;5107458;27;20730;-63
2023/06/06 02:32:51;;;;;;;7.18;4.32;;;14.80;99.90;;;;;;5107977;28;20031;-63
2023/06/06 02:35:20;;;;;;;9.10;4.28;;;14.70;99.90;;;;;;5105549;28;20050;-62
2023/06/06 02:37:46;;;;;;;11.27;4.25;;;14.40;99.90;;;;;;5102874;28;20431;-64
2023/06/06 02:40:12;;;;;;;9.63;4.57;;;14.10;99.90;;;;;;5103891;28;20016;-63
2023/06/06 02:42:38;;;;;;;10.75;4.22;;;14.00;99.90;;;;;;5099732;28;20457;-63
2023/06/06 02:45:08;;;;;;;12.55;4.85;;;14.00;99.90;;;;;;5103607;27;20043;-63
2023/06/06 02:47:34;;;;;;;6.63;4.55;;;13.90;99.90;;;;;;5102754;28;20050;-63
2023/06/06 02:50:00;;;;;;;10.07;5.88;;;13.70;99.90;;;;;;5105674;28;20039;-63
2023/06/06 02:52:28;;;;;;;12.95;6.05;;;13.80;99.90;;;;;;5101619;28;20063;-63
2023/06/06 02:54:53;;;;;;;9.55;5.28;;;13.90;99.90;;;;;;5103197;27;20020;-63
2023/06/06 02:57:21;;;;;;;16.77;6.30;;;14.10;99.90;;;;;;5104715;28;20026;-63
2023/06/06 02:59:47;;;;;;;17.02;6.53;;;14.20;99.90;;;;;;5103209;28;20012;-64
2023/06/06 03:02:15;;;;;;;14.52;7.35;;;14.30;99.90;;;;;;5103693;28;20022;-63
2023/06/06 03:04:43;;;;;;;14.38;6.63;;;14.40;99.90;;;;;;5101146;28;20024;-64
2023/06/06 03:07:12;;;;;;;14.70;6.57;;;14.40;99.90;;;;;;5103677;28;20023;-63
2023/06/06 03:09:38;;;;;;;16.02;6.45;;;14.50;99.90;;;;;;5105306;28;20015;-63
2023/06/06 03:12:04;;;;;;;18.25;6.57;;;14.50;99.90;;;;;;5106508;28;20012;-64
2023/06/06 03:14:30;;;;;;;9.98;5.40;;;14.50;99.90;;;;;;5102354;28;20062;-62
2023/06/06 03:16:56;;;;;;;7.53;4.90;;;14.50;99.90;;;;;;5098270;28;20071;-63
2023/06/06 03:19:22;;;;;;;10.88;5.75;;;14.00;99.90;;;;;;5100910;28;20114;-63
2023/06/06 03:21:48;;;;;;;15.10;4.97;;;13.60;99.90;;;;;;5106353;28;20076;-64
2023/06/06 03:24:15;;;;;;;12.43;5.78;;;13.50;99.90;;;;;;5100963;28;20028;-63
2023/06/06 03:26:46;;;;;;;9.35;5.32;;;13.40;99.90;;;;;;5105918;28;20106;-64
2023/06/06 03:29:12;;;;;;;9.68;6.13;;;13.30;99.90;;;;;;5098466;28;20035;-63
2023/06/06 03:31:38;;;;;;;14.60;5.90;;;13.30;99.90;;;;;;5104862;28;20058;-63
2023/06/06 03:34:04;;;;;;;9.73;5.95;;;13.30;99.90;;;;;;5101537;28;20059;-63
2023/06/06 03:36:32;;;;;;;13.07;7.55;;;13.40;99.90;;;;;;5100569;28;20409;-63
2023/06/06 03:39:01;;;;;;;15.10;6.57;;;13.50;99.90;;;;;;5103921;28;20127;-63
2023/06/06 03:41:27;;;;;;;19.73;7.35;;;13.70;99.90;;;;;;5101591;28;20038;-62
2023/06/06 03:43:53;;;;;;;14.43;8.23;;;13.80;99.90;;;;;;5102666;28;20110;-63
2023/06/06 03:46:19;;;;;;;16.17;7.57;;;13.90;99.90;;;;;;5100886;28;20028;-63
2023/06/06 03:48:44;;;;;;;14.38;5.50;;;13.90;99.90;;;;;;5101688;28;20566;-64
2023/06/06 03:51:10;;;;;;;13.02;5.85;;;13.80;99.90;;;;;;5101355;28;20069;-62
2023/06/06 03:53:36;;;;;;;17.42;6.30;;;13.60;99.90;;;;;;5103543;28;20107;-63
2023/06/06 03:56:03;;;;;;;16.48;6.10;;;13.50;99.90;;;;;;5104884;28;20400;-62
2023/06/06 03:58:29;;;;;;;17.95;7.15;;;13.30;99.90;;;;;;5102128;28;20034;-63
2023/06/06 04:00:58;;;;;;;19.00;7.60;;;13.20;99.90;;;;;;5105755;28;20027;-63
2023/06/06 04:03:23;;;;;;;16.08;7.00;;;13.20;99.90;;;;;;5105568;28;20051;-64
2023/06/06 04:05:50;;;;;;;14.65;7.03;;;13.20;99.90;;;;;;5108809;28;20104;-62
2023/06/06 04:08:16;;;;;;;19.67;8.00;;;13.30;99.90;;;;;;5105909;27;20020;-63
2023/06/06 04:10:42;;;;;;;18.35;8.48;;;13.40;99.90;;;;;;5107852;28;20035;-62
2023/06/06 04:13:07;;;;;;;18.40;8.20;;;13.60;99.90;;;;;;5100864;28;20417;-62
2023/06/06 04:15:33;;;;;;;16.98;8.38;;;13.70;99.90;;;;;;5105796;28;20382;-61
2023/06/06 04:17:58;;;;;;;16.27;8.43;;;13.80;99.90;;;;;;5106283;28;20020;-63
2023/06/06 04:20:26;;;;;;;21.17;7.55;;;13.90;99.90;;;;;;5108629;28;20035;-62
2023/06/06 04:22:52;;;;;;;16.35;8.50;;;14.00;99.90;;;;;;5106000;28;20024;-62
2023/06/06 04:25:18;;;;;;;15.95;7.90;;;14.00;99.90;;;;;;5107714;28;20027;-63
2023/06/06 04:27:44;;;;;;;12.63;7.47;;;14.10;99.90;;;;;;5109904;28;20481;-63
2023/06/06 04:30:14;;;;;;;16.67;7.50;;;14.10;99.90;;;;;;5110581;27;20073;-63
2023/06/06 04:32:40;;;;;;;16.00;7.32;;;14.00;99.90;;;;;;5111313;28;20034;-63
2023/06/06 04:35:11;;;;;;;12.85;6.72;;;14.00;99.90;;;;;;5111649;28;20102;-63
2023/06/06 04:37:37;;;;;;;13.98;7.10;;;14.00;99.90;;;;;;5110781;28;20019;-63
2023/06/06 04:40:05;;;;;;;14.95;7.30;;;14.00;99.90;;;;;;5109594;28;20370;-61
2023/06/06 04:42:33;;;;;;;15.15;7.10;;;14.00;99.90;;;;;;5108209;28;20536;-63
2023/06/06 04:45:02;;;;;;;21.17;8.10;;;14.10;99.90;;;;;;5105051;28;20020;-63
2023/06/06 04:47:28;;;;;;;17.42;7.72;;;14.20;99.90;;;;;;5104546;28;20024;-61
2023/06/06 04:49:54;;;;;;;15.20;8.73;;;14.20;99.90;;;;;;5108000;28;20421;-58
2023/06/06 04:52:20;;;;;;;14.40;8.15;;;14.20;99.90;;;;;;5112894;28;20050;-60
2023/06/06 04:54:46;;;;;;;17.73;8.35;;;14.30;99.90;;;;;;5107240;28;20016;-61
2023/06/06 04:57:15;;;;;;;18.48;8.63;;;14.30;99.90;;;;;;5111347;28;20016;-60
2023/06/06 04:59:44;;;;;;;15.90;8.25;;;14.40;99.90;;;;;;5109516;28;20541;-61
2023/06/06 05:02:10;;;;;;;25.25;9.13;;;14.50;99.90;;;;;;5111019;28;20020;-61
2023/06/06 05:04:36;;;;;;;20.40;9.32;;;14.60;99.90;;;;;;5112456;28;20027;-60
2023/06/06 05:07:01;;;;;;;24.48;9.75;;;14.60;99.90;;;;;;5111979;28;20050;-59
2023/06/06 05:09:27;;;;;;;16.73;8.65;;;14.70;99.90;;;;;;5111046;28;20106;-58
2023/06/06 05:11:54;;;;;;;24.08;8.50;;;14.70;99.90;;;;;;5107343;28;20023;-59
2023/06/06 05:14:23;;;;;;;23.98;8.95;;;14.80;99.90;;;;;;5105345;28;20072;-61
2023/06/06 05:16:51;;;;;;;16.98;8.48;;;14.80;99.90;;;;;;5111610;28;20554;-59
2023/06/06 05:19:17;;;;;;;20.67;9.52;;;14.90;99.90;;;;;;5108573;28;20482;-61
2023/06/06 05:21:42;;;;;;;18.35;8.57;;;14.90;99.90;;;;;;5104799;28;20059;-60
2023/06/06 05:24:08;;;;;;;17.63;9.07;;;15.00;99.90;;;;;;5109365;27;20444;-61
2023/06/06 05:26:33;;;;;;;22.25;10.05;;;15.00;99.90;;;;;;5111629;28;20028;-61
2023/06/06 05:29:00;;;;;;;18.05;9.80;;;15.10;99.90;;;;;;5108283;28;20110;-61
2023/06/06 05:31:26;;;;;;;16.33;8.90;;;15.10;99.90;;;;;;5103143;28;20024;-61
2023/06/06 05:33:52;;;;;;;20.67;8.27;;;15.10;99.90;;;;;;5106045;28;20682;-61
2023/06/06 05:36:18;;;;;;;17.23;9.20;;;15.20;99.90;;;;;;5112265;28;20099;-62
2023/06/06 05:38:43;;;;;;;16.50;9.25;;;15.20;99.90;;;;;;5111996;28;20039;-62
2023/06/06 05:41:09;;;;;;;20.00;9.93;;;15.30;99.90;;;;;;5109522;28;20034;-59
2023/06/06 05:43:34;;;;;;;15.23;9.43;;;15.30;99.90;;;;;;5108806;28;20035;-61
2023/06/06 05:46:01;;;;;;;20.17;10.45;;;15.40;99.90;;;;;;5111273;28;20477;-61
2023/06/06 05:48:27;;;;;;;28.92;9.73;;;15.40;99.90;;;;;;5111582;28;20037;-61
2023/06/06 05:50:53;;;;;;;23.33;9.43;;;15.50;99.90;;;;;;5110977;28;20028;-61
2023/06/06 05:53:19;;;;;;;20.02;9.57;;;15.50;99.90;;;;;;5111743;28;20034;-60
2023/06/06 05:55:45;;;;;;;16.67;8.90;;;15.60;99.90;;;;;;5110113;28;20027;-60
2023/06/06 05:58:10;;;;;;;19.85;9.10;;;15.70;99.90;;;;;;5107020;28;20473;-61
2023/06/06 06:00:36;;;;;;;24.58;10.85;;;15.70;99.90;;;;;;5110378;28;20607;-62
2023/06/06 06:03:02;;;;;;;20.20;9.60;;;15.80;99.90;;;;;;5111730;28;20032;-61
2023/06/06 06:05:28;;;;;;;23.70;9.82;;;15.90;99.90;;;;;;5112190;28;20048;-61
2023/06/06 06:08:01;;;;;;;17.15;10.05;;;15.90;99.90;;;;;;5105421;28;20617;-62
2023/06/06 06:10:31;;;;;;;17.48;10.27;;;16.00;99.90;;;;;;5103454;28;20702;-61
2023/06/06 06:12:57;;;;;;;22.55;10.82;;;16.10;99.90;;;;;;5107659;28;20585;-61
2023/06/06 06:15:23;;;;;;;17.80;10.00;;;16.20;99.90;;;;;;5109923;28;20073;-61
2023/06/06 06:17:49;;;;;;;20.52;10.43;;;16.20;99.90;;;;;;5111380;28;20024;-61
2023/06/06 06:20:19;;;;;;;22.08;10.38;;;16.30;99.90;;;;;;5102293;27;20027;-60
2023/06/06 06:22:45;;;;;;;20.40;10.57;;;16.40;99.90;;;;;;5107730;28;20027;-62
2023/06/06 06:25:12;;;;;;;18.55;10.00;;;16.40;99.90;;;;;;5109166;28;20080;-61
2023/06/06 06:27:38;;;;;;;22.77;10.85;;;16.50;99.90;;;;;;5110757;28;20019;-61
2023/06/06 06:30:05;;;;;;;25.40;11.05;;;16.60;99.90;;;;;;5110001;28;20115;-61
2023/06/06 06:32:36;;;;;;;21.98;10.77;;;16.60;99.90;;;;;;5108211;28;20066;-59
2023/06/06 06:35:02;;;;;;;22.63;9.98;;;16.70;99.90;;;;;;5106769;28;20028;-61
2023/06/06 06:37:31;;;;;;;22.77;10.68;;;16.70;99.90;;;;;;5108991;28;20035;-60
2023/06/06 06:39:58;;;;;;;28.88;11.48;;;16.80;99.90;;;;;;5107811;28;20064;-61
2023/06/06 06:42:24;;;;;;;24.20;11.02;;;17.00;99.90;;;;;;5105894;28;20363;-61
2023/06/06 06:44:50;;;;;;;22.30;11.32;;;17.00;99.90;;;;;;5110055;28;20034;-58
2023/06/06 06:47:16;;;;;;;24.58;10.40;;;17.00;99.90;;;;;;5108050;28;20423;-61
2023/06/06 06:49:42;;;;;;;26.23;10.73;;;17.00;99.90;;;;;;5109118;28;20084;-60
2023/06/06 06:52:11;;;;;;;20.20;9.77;;;17.10;99.90;;;;;;5105011;28;20077;-61
2023/06/06 06:54:45;;;;;;;17.98;10.10;;;17.20;99.90;;;;;;5105014;28;20027;-61
2023/06/06 06:57:11;;;;;;;16.25;9.93;;;17.30;99.90;;;;;;5100650;28;20080;-61
2023/06/06 06:59:36;;;;;;;26.90;9.43;;;17.40;99.90;;;;;;5104104;28;20418;-62
2023/06/06 07:02:02;;;;;;;18.45;8.63;;;17.40;99.90;;;;;;5105266;28;20039;-61
2023/06/06 07:04:28;;;;;;;16.00;8.77;;;17.50;99.90;;;;;;5103152;28;20031;-61
2023/06/06 07:06:55;;;;;;;21.30;10.35;;;17.50;99.90;;;;;;5102204;28;20100;-61
2023/06/06 07:09:20;;;;;;;18.02;8.90;;;17.50;99.90;;;;;;5106679;28;20497;-62
2023/06/06 07:11:46;;;;;;;20.77;10.23;;;17.50;99.90;;;;;;5106383;28;20030;-61
2023/06/06 07:14:12;;;;;;;21.23;10.48;;;17.60;99.90;;;;;;5102729;28;20019;-61
2023/06/06 07:16:37;;;;;;;19.33;10.18;;;17.70;99.90;;;;;;5101911;28;20044;-57
2023/06/06 07:19:03;;;;;;;23.00;10.40;;;17.80;99.90;;;;;;5104593;28;20184;-61
2023/06/06 07:21:28;;;;;;;23.70;10.75;;;17.80;99.90;;;;;;5103521;28;20094;-60
2023/06/06 07:23:55;;;;;;;21.65;8.82;;;17.80;99.90;;;;;;5106371;28;20027;-61
2023/06/06 07:26:21;;;;;;;22.95;9.95;;;17.90;99.90;;;;;;5108352;28;20114;-59
2023/06/06 07:28:47;;;;;;;20.45;9.15;;;17.90;99.90;;;;;;5100666;28;20478;-61
2023/06/06 07:31:13;;;;;;;19.38;9.18;;;18.00;99.90;;;;;;5098628;28;20028;-62
2023/06/06 07:33:40;;;;;;;17.65;9.27;;;18.10;99.90;;;;;;5102421;28;20024;-60
2023/06/06 07:36:06;;;;;;;19.50;8.55;;;18.20;99.90;;;;;;5103131;28;20035;-61
2023/06/06 07:38:32;;;;;;;19.48;9.70;;;18.20;99.90;;;;;;5107448;28;20169;-61
2023/06/06 07:40:58;;;;;;;20.38;9.27;;;18.30;99.90;;;;;;5100959;28;20118;-61
2023/06/06 07:43:23;;;;;;;19.35;9.98;;;18.30;99.90;;;;;;5101549;28;20035;-61
2023/06/06 07:45:50;;;;;;;15.85;8.60;;;18.30;99.90;;;;;;5105301;28;20027;-61
2023/06/06 07:48:15;;;;;;;14.50;8.80;;;18.30;99.90;;;;;;5107281;28;20027;-61
2023/06/06 07:50:41;;;;;;;19.73;9.95;;;18.50;99.90;;;;;;5107751;28;20023;-61
2023/06/06 07:53:06;;;;;;;26.33;8.80;;;18.60;99.90;;;;;;5105183;28;20095;-61
2023/06/06 07:55:32;;;;;;;21.52;8.70;;;18.70;99.90;;;;;;5103957;28;20028;-61
2023/06/06 07:57:58;;;;;;;16.38;8.38;;;18.80;99.90;;;;;;5109099;28;20081;-61
2023/06/06 08:00:23;;;;;;;21.98;9.00;;;18.90;99.90;;;;;;5102704;28;20036;-61
2023/06/06 08:02:50;;;;;;;15.60;8.32;;;19.00;99.90;;;;;;5108714;28;20019;-61
2023/06/06 08:05:17;;;;;;;22.58;8.20;;;18.90;99.90;;;;;;5102903;28;20091;-61
2023/06/06 08:07:43;;;;;;;19.30;8.90;;;19.00;99.90;;;;;;5105895;28;20023;-61
2023/06/06 08:10:09;;;;;;;20.25;8.98;;;19.10;99.90;;;;;;5102129;28;20032;-62
2023/06/06 08:12:35;;;;;;;20.00;9.32;;;19.20;99.90;;;;;;5105523;28;20601;-60
2023/06/06 08:15:02;;;;;;;16.15;9.25;;;19.30;99.90;;;;;;5106217;28;20016;-61
2023/06/06 08:17:27;;;;;;;17.33;9.20;;;19.30;99.90;;;;;;5104282;28;20667;-62
2023/06/06 08:19:53;;;;;;;20.85;8.50;;;19.30;99.90;;;;;;5103578;28;20066;-62
2023/06/06 08:22:19;;;;;;;19.05;8.45;;;19.30;99.90;;;;;;5107375;28;20016;-61
2023/06/06 08:24:44;;;;;;;13.20;8.10;;;19.30;99.90;;;;;;5104536;28;20059;-62
2023/06/06 08:27:10;;;;;;;25.60;7.85;;;19.30;99.90;;;;;;5107541;28;21962;-62
2023/06/06 08:29:36;;;;;;;19.95;7.95;;;19.40;99.90;;;;;;5107391;28;20020;-61
2023/06/06 08:32:03;;;;;;;17.67;8.00;;;19.50;99.90;;;;;;5102533;28;20034;-61
2023/06/06 08:34:28;;;;;;;16.05;8.32;;;19.60;99.90;;;;;;5103806;28;20103;-62
2023/06/06 08:36:54;;;;;;;14.07;7.18;;;19.70;99.90;;;;;;5102124;28;20110;-61
2023/06/06 08:39:21;;;;;;;18.00;8.27;;;19.90;99.90;;;;;;5101804;28;20041;-60
2023/06/06 08:41:55;;;;;;;18.10;8.68;;;19.90;99.90;;;;;;5107900;28;20035;-61
2023/06/06 08:44:22;;;;;;;;;;;19.90;99.90;;;;;;5109024;28;20020;-61
2023/06/06 08:46:52;;;;;;;16.83;7.50;;;20.00;99.90;;;;;;5107739;28;20381;-59
2023/06/06 08:49:18;;;;;;;17.58;8.77;;;20.10;99.90;;;;;;5102627;28;20087;-59
2023/06/06 08:51:46;;;;;;;21.42;8.73;;;20.20;99.90;;;;;;5102085;28;20024;-59
2023/06/06 08:54:12;;;;;;;22.40;8.88;;;20.30;99.90;;;;;;5103172;28;20020;-59
2023/06/06 08:56:41;;;;;;;17.13;7.95;;;20.40;99.90;;;;;;5108854;28;20435;-60
2023/06/06 08:59:07;;;;;;;20.10;9.20;;;20.40;99.90;;;;;;5106832;28;20031;-61
2023/06/06 09:01:34;;;;;;;14.35;7.30;;;20.50;99.90;;;;;;5103843;28;20436;-60
2023/06/06 09:04:00;;;;;;;16.63;8.80;;;20.60;99.90;;;;;;5107136;28;20036;-61
2023/06/06 09:06:26;;;;;;;15.02;8.15;;;20.70;99.90;;;;;;5107019;28;20123;-60
2023/06/06 09:08:55;;;;;;;13.55;7.63;;;20.80;99.90;;;;;;5108720;28;20027;-61
2023/06/06 09:11:21;;;;;;;22.58;7.53;;;20.90;99.90;;;;;;5101877;28;20028;-62
2023/06/06 09:13:47;;;;;;;13.38;6.80;;;21.10;99.90;;;;;;5111021;28;20035;-61
2023/06/06 09:16:15;;;;;;;14.13;7.68;;;21.30;99.90;;;;;;5108388;28;20027;-62
2023/06/06 09:18:42;;;;;;;16.50;7.60;;;21.30;99.90;;;;;;5107973;28;20069;-61
2023/06/06 09:21:08;;;;;;;19.15;7.40;;;21.40;99.90;;;;;;5101749;28;20024;-61
2023/06/06 09:23:34;;;;;;;12.27;6.03;;;21.50;99.90;;;;;;5109588;28;20047;-62
2023/06/06 09:26:00;;;;;;;17.90;6.63;;;21.60;99.90;;;;;;5110926;28;20024;-61
2023/06/06 09:28:39;;;;;;;11.10;6.05;;;21.80;99.90;;;;;;5109399;28;20070;-61
2023/06/06 09:31:25;;;;;;;15.10;7.20;;;22.00;99.90;;;;;;5107150;28;20079;-61
2023/06/06 09:33:55;;;;;;;16.70;6.97;;;22.00;99.90;;;;;;5109946;28;20132;-60
2023/06/06 09:36:25;;;;;;;13.25;6.75;;;22.10;99.90;;;;;;5105588;28;20027;-59
2023/06/06 09:38:51;;;;;;;17.75;7.07;;;22.10;99.90;;;;;;5108220;28;20106;-61
2023/06/06 09:41:18;;;;;;;15.38;7.05;;;22.20;99.90;;;;;;5108669;28;20039;-61
2023/06/06 09:43:43;;;;;;;11.00;5.72;;;22.30;99.90;;;;;;5110281;28;20035;-60
2023/06/06 09:46:14;;;;;;;12.00;5.38;;;22.30;99.90;;;;;;5107316;28;20016;-61
2023/06/06 09:48:40;;;;;;;9.85;5.88;;;22.30;99.90;;;;;;5110036;28;20481;-60
2023/06/06 09:51:08;;;;;;;14.93;5.38;;;22.50;99.90;;;;;;5109686;28;20035;-61
2023/06/06 09:53:36;;;;;;;14.93;6.65;;;22.60;99.90;;;;;;5106772;28;20107;-61
2023/06/06 09:56:05;;;;;;;11.93;5.43;;;22.70;99.90;;;;;;5108677;28;20566;-60
2023/06/06 09:58:32;;;;;;;12.95;6.25;;;22.80;99.90;;;;;;5105793;28;20046;-61
2023/06/06 10:00:58;;;;;;;16.00;6.07;;;23.00;99.90;;;;;;5106798;28;20027;-62
2023/06/06 10:03:25;;;;;;;17.38;7.45;;;23.20;99.90;;;;;;5107091;28;20277;-59
2023/06/06 10:05:51;;;;;;;15.40;6.88;;;23.30;99.90;;;;;;5103979;28;20029;-60
2023/06/06 10:08:18;;;;;;;20.40;6.68;;;23.50;99.90;;;;;;5107295;28;20023;-60
2023/06/06 10:10:46;;;;;;;12.55;6.57;;;23.70;99.90;;;;;;5107536;28;20034;-61
2023/06/06 10:13:22;;;;;;;10.52;5.70;;;23.70;99.90;;;;;;5108812;28;20515;-60
2023/06/06 10:15:50;;;;;;;12.63;6.35;;;23.70;99.90;;;;;;5108105;28;20076;-61
2023/06/06 10:18:16;;;;;;;18.48;7.13;;;23.90;99.90;;;;;;5109604;28;20019;-60
2023/06/06 10:20:44;;;;;;;16.98;6.35;;;24.00;99.90;;;;;;5107184;28;20083;-60
2023/06/06 10:23:10;;;;;;;10.45;5.80;;;24.30;99.90;;;;;;5105487;28;20024;-60
2023/06/06 10:25:38;;;;;;;14.50;7.07;;;24.60;99.90;;;;;;5109428;28;20030;-60
2023/06/06 10:28:12;;;;;;;13.38;7.00;;;24.60;99.90;;;;;;5106928;28;20505;-61
2023/06/06 10:30:45;;;;;;;15.70;6.00;;;24.70;99.90;;;;;;5104744;28;20030;-59
2023/06/06 10:33:29;;;;;;;14.65;5.65;;;24.70;99.90;;;;;;5106933;28;20393;-61
2023/06/06 10:36:03;;;;;;;9.63;4.38;;;24.90;99.90;;;;;;5109584;28;20020;-60
2023/06/06 10:38:30;;;;;;;;;;;25.10;99.90;;;;;;5110380;28;20032;-59
2023/06/06 10:40:58;;;;;;;9.52;4.72;;;25.00;99.90;;;;;;5109156;28;19918;-60
2023/06/06 10:43:32;;;;;;;12.70;4.10;;;25.10;98.00;;;;;;5106270;28;20496;-60
2023/06/06 10:45:58;;;;;;;8.02;4.32;;;25.10;97.30;;;;;;5106314;28;20031;-60
2023/06/06 10:48:40;;;;;;;10.73;3.72;;;25.20;96.70;;;;;;5103328;28;20023;-60
2023/06/06 10:51:29;;;;;;;11.18;4.88;;;25.30;95.50;;;;;;5104719;28;20016;-60
2023/06/06 10:54:14;;;;;;;10.85;4.65;;;25.60;97.00;;;;;;5105503;28;20102;-60
2023/06/06 10:56:54;;;;;;;12.23;4.05;;;25.60;96.60;;;;;;5109524;28;20053;-60
2023/06/06 10:59:27;;;;;;;7.57;4.30;;;25.60;96.00;;;;;;5105485;28;20513;-61
2023/06/06 11:01:57;;;;;;;12.32;4.22;;;25.50;95.90;;;;;;5108726;28;20035;-60
2023/06/06 11:04:27;;;;;;;8.68;3.78;;;25.70;95.80;;;;;;5108668;28;20023;-59
2023/06/06 11:07:00;;;;;;;5.72;4.13;;;25.90;95.70;;;;;;5108345;28;20114;-60
2023/06/06 11:09:32;;;;;;;12.43;4.85;;;26.30;95.60;;;;;;5102481;28;20022;-60
2023/06/06 11:12:13;;;;;;;9.68;5.65;;;26.20;95.10;;;;;;5106696;28;20069;-60
2023/06/06 11:14:58;;;;;;;8.95;5.35;;;26.10;95.80;;;;;;5101413;28;20096;-57
2023/06/06 11:17:31;;;;;;;12.40;4.97;;;26.00;96.60;;;;;;5106470;28;20096;-60
2023/06/06 11:19:59;;;;;;;11.88;4.63;;;26.00;96.00;;;;;;5103260;28;20027;-60
2023/06/06 11:22:25;;;;;;;10.63;4.35;;;26.10;95.60;;;;;;5103482;28;20031;-60
2023/06/06 11:24:55;;;;;;;8.98;4.45;;;26.30;96.10;;;;;;5109030;28;20032;-58
2023/06/06 11:27:21;;;;;;;10.82;4.63;;;26.70;96.10;;;;;;5107399;28;20007;-59
2023/06/06 11:29:47;;;;;;;10.02;4.45;;;27.10;95.50;;;;;;5107368;28;20098;-60
2023/06/06 11:32:14;;;;;;;12.45;5.38;;;27.20;91.10;;;;;;5107229;28;20114;-59
2023/06/06 11:34:41;;;;;;;6.97;4.53;;;27.20;91.10;;;;;;5102731;28;20032;-59
2023/06/06 11:37:07;;;;;;;9.80;5.28;;;27.30;91.30;;;;;;5102594;28;20511;-61
2023/06/06 11:39:33;;;;;;;11.65;5.13;;;27.30;92.40;;;;;;5102410;28;20039;-60
2023/06/06 11:42:00;;;;;;;8.20;4.50;;;27.30;91.50;;;;;;5105882;28;20032;-60
2023/06/06 11:44:35;;;;;;;14.40;4.75;;;27.30;91.80;;;;;;5095886;28;20035;-59
2023/06/06 11:47:03;;;;;;;10.43;4.50;;;27.40;91.40;;;;;;5103023;28;20031;-61
2023/06/06 11:49:29;;;;;;;8.77;4.45;;;27.40;91.00;;;;;;5101969;28;20030;-61
2023/06/06 11:52:00;;;;;;;7.72;3.80;;;27.80;91.50;;;;;;5104815;28;20020;-61
2023/06/06 11:54:27;;;;;;;8.90;4.20;;;28.20;90.70;;;;;;5105145;28;20464;-58
2023/06/06 11:56:56;;;;;;;16.98;4.90;;;28.10;90.90;;;;;;5102665;28;20369;-60
2023/06/06 11:59:22;;;;;;;9.48;4.97;;;28.20;88.00;;;;;;5101909;28;20035;-59
2023/06/06 12:01:58;;;;;;;7.20;4.15;;;28.10;87.30;;;;;;5101423;28;20027;-59
2023/06/06 12:04:25;;;;;;;11.32;3.60;;;28.20;89.30;;;;;;5106219;28;20138;-59
2023/06/06 12:06:52;;;;;;;15.23;4.40;;;28.10;84.80;;;;;;5103946;28;20111;-60
2023/06/06 12:09:19;;;;;;;9.15;5.15;;;27.70;84.90;;;;;;5105805;28;20069;-61
2023/06/06 12:11:53;;;;;;;9.30;4.88;;;27.10;85.10;;;;;;5101793;28;20035;-61
2023/06/06 12:14:25;;;;;;;12.02;4.25;;;26.60;84.00;;;;;;5103188;28;20028;-61
2023/06/06 12:16:51;;;;;;;13.70;4.00;;;26.60;87.90;;;;;;5101515;28;20119;-60
2023/06/06 12:19:17;;;;;;;6.90;3.55;;;26.50;86.80;;;;;;5103835;28;20114;-60
2023/06/06 12:21:48;;;;;;;7.00;3.78;;;26.50;85.80;;;;;;5107137;28;20039;-60
2023/06/06 12:24:23;;;;;;;8.90;4.03;;;26.20;87.10;;;;;;5105976;28;20055;-60
2023/06/06 12:26:55;;;;;;;9.20;4.25;;;26.10;85.20;;;;;;5105502;28;20056;-60
2023/06/06 12:29:26;;;;;;;13.52;4.35;;;26.00;85.20;;;;;;5104125;28;20030;-60
2023/06/06 12:32:15;;;;;;;5.03;3.60;;;25.90;85.50;;;;;;5104429;28;20039;-60
2023/06/06 12:34:43;;;;;;;6.57;4.18;;;25.80;86.00;;;;;;5101968;28;20092;-60
2023/06/06 12:37:09;;;;;;;6.93;4.20;;;25.70;86.50;;;;;;5102335;28;20490;-61
2023/06/06 12:39:38;;;;;;;9.20;4.43;;;25.50;86.10;;;;;;5103413;28;20729;-58
2023/06/06 12:42:15;;;;;;;6.10;3.50;;;25.50;86.20;;;;;;5098661;28;20031;-59
2023/06/06 12:44:41;;;;;;;7.75;3.95;;;25.40;86.30;;;;;;5105419;28;20023;-57